Time;durP1;ratioP1;P1;durP2;ratioP2;P2;SDS_P1;SDS_P2;PMS_P1;PMS_P2;Temp;Humidity;BMP_temperature;BMP_pressure;BME280_temperature;BME280_humidity;BME280_pressure;Samples;Min_cycle;Max_cycle;Signal;HPM_P1;HPM_P2
2023/06/16 00:02:12;;;;;;;9.65;4.88;;;;;;;20.33;50.00;101742.19;5033306;28;20379;-62
2023/06/16 00:04:43;;;;;;;9.32;4.40;;;;;;;20.32;50.34;101743.13;5033413;28;20029;-63
2023/06/16 00:07:11;;;;;;;10.98;4.82;;;;;;;20.33;49.91;101742.19;5033033;28;20041;-62
2023/06/16 00:09:38;;;;;;;8.70;4.40;;;;;;;20.33;50.01;101744.88;5033208;28;20040;-62
2023/06/16 00:12:04;;;;;;;9.57;4.72;;;;;;;20.34;50.12;101743.97;5033539;28;20080;-62
2023/06/16 00:14:30;;;;;;;12.18;4.82;;;;;;;20.29;49.99;101740.47;5033298;28;20025;-63
2023/06/16 00:16:57;;;;;;;7.93;5.10;;;;;;;20.20;50.19;101745.06;5033201;28;20036;-63
2023/06/16 00:19:27;;;;;;;7.70;4.90;;;;;;;20.06;51.13;101739.03;5033194;28;20486;-62
2023/06/16 00:21:52;;;;;;;9.25;5.07;;;;;;;19.97;51.38;101739.16;5033608;28;20088;-62
2023/06/16 00:24:18;;;;;;;7.68;4.93;;;;;;;19.98;51.46;101743.59;5033061;28;20026;-62
2023/06/16 00:26:43;;;;;;;7.70;4.97;;;;;;;19.76;52.32;101741.22;5033026;28;20033;-62
2023/06/16 00:29:09;;;;;;;7.47;5.15;;;;;;;19.62;52.26;101740.50;5033252;28;20052;-62
2023/06/16 00:31:34;;;;;;;11.23;5.25;;;;;;;19.50;53.09;101743.31;5033089;28;20021;-62
2023/06/16 00:34:00;;;;;;;9.63;5.30;;;;;;;19.55;52.58;101740.56;5032964;28;20072;-62
2023/06/16 00:36:26;;;;;;;8.60;4.90;;;;;;;19.41;53.25;101746.09;5033046;28;20022;-62
2023/06/16 00:38:52;;;;;;;11.55;5.13;;;;;;;19.41;53.32;101736.25;5032948;28;20079;-63
2023/06/16 00:41:17;;;;;;;11.52;5.38;;;;;;;19.38;53.24;101736.28;5032867;28;20025;-62
2023/06/16 00:43:43;;;;;;;10.35;5.20;;;;;;;19.39;53.44;101730.00;5015278;28;20029;-62
2023/06/16 00:46:24;;;;;;;9.60;5.32;;;;;;;19.31;53.28;101739.91;5032940;28;20079;-62
2023/06/16 00:48:49;;;;;;;9.85;5.10;;;;;;;19.29;53.81;101738.19;5032882;28;20034;-62
2023/06/16 00:51:15;;;;;;;12.82;5.32;;;;;;;19.27;53.46;101746.22;5032823;28;20033;-62
2023/06/16 00:53:41;;;;;;;11.60;5.13;;;;;;;19.32;53.76;101740.84;5033053;28;20030;-62
2023/06/16 00:56:07;;;;;;;15.68;5.20;;;;;;;19.34;53.45;101733.66;5033065;28;20367;-62
2023/06/16 00:58:32;;;;;;;14.75;5.20;;;;;;;19.16;53.91;101730.28;5032732;28;20495;-63
2023/06/16 01:00:59;;;;;;;10.98;5.20;;;;;;;19.09;54.23;101738.38;5015159;28;20050;-62
2023/06/16 01:03:26;;;;;;;14.20;4.90;;;;;;;19.03;54.48;101736.66;5032572;28;20112;-62
2023/06/16 01:05:54;;;;;;;16.25;5.28;;;;;;;18.97;54.22;101728.66;5032693;28;20100;-62
2023/06/16 01:09:03;;;;;;;8.43;5.20;;;;;;;18.94;53.79;101734.97;5032913;28;20040;-62
2023/06/16 01:11:53;;;;;;;13.43;5.30;;;;;;;18.97;53.69;101729.59;4968468;28;20033;-62
2023/06/16 01:14:40;;;;;;;13.15;5.30;;;;;;;19.07;52.84;101724.13;5032613;28;20387;-62
2023/06/16 01:17:08;;;;;;;16.55;5.40;;;;;;;19.06;53.48;101719.66;5032714;28;20037;-62
2023/06/16 01:19:39;;;;;;;11.07;4.95;;;;;;;19.08;53.38;101724.09;5034323;28;20036;-62
2023/06/16 01:22:53;;;;;;;17.27;5.55;;;;;;;19.20;52.27;101721.31;5036718;28;20164;-62
2023/06/16 01:25:22;;;;;;;15.75;5.20;;;;;;;19.17;53.30;101723.13;4975983;28;20475;-62
2023/06/16 01:27:52;;;;;;;7.07;5.03;;;;;;;19.13;53.17;101729.41;5036232;28;20030;-62
2023/06/16 01:30:22;;;;;;;6.82;4.63;;;;;;;19.01;53.58;101725.97;5036574;28;20041;-62
2023/06/16 01:32:51;;;;;;;6.72;5.22;;;;;;;18.88;53.97;101729.66;5036402;28;20022;-62
2023/06/16 01:35:18;;;;;;;7.45;5.05;;;;;;;18.75;54.15;101726.19;5036288;28;20032;-62
2023/06/16 01:37:44;;;;;;;9.57;5.00;;;;;;;18.74;54.57;101726.22;5036174;28;20394;-62
2023/06/16 01:40:11;;;;;;;13.63;4.97;;;;;;;18.62;55.01;101727.16;5036228;28;20386;-62
2023/06/16 01:42:37;;;;;;;10.13;5.13;;;;;;;18.54;55.54;101726.34;5036123;28;20021;-62
2023/06/16 01:45:03;;;;;;;11.35;5.10;;;;;;;18.44;55.69;101725.53;5036061;28;20075;-62
2023/06/16 01:47:30;;;;;;;9.48;5.57;;;;;;;18.39;56.04;101729.16;5035842;28;20037;-62
2023/06/16 01:49:56;;;;;;;7.82;5.22;;;;;;;18.30;56.25;101723.88;5036199;28;20490;-62
2023/06/16 01:52:21;;;;;;;12.45;5.00;;;;;;;18.24;56.14;101714.09;5036320;28;20038;-62
2023/06/16 01:54:47;;;;;;;11.25;5.18;;;;;;;18.21;55.99;101716.81;5036239;28;20356;-62
2023/06/16 01:57:12;;;;;;;9.85;5.38;;;;;;;18.13;55.88;101710.63;5035720;28;20044;-62
2023/06/16 01:59:38;;;;;;;10.73;5.70;;;;;;;18.07;55.57;101719.53;5035724;28;20041;-62
2023/06/16 02:02:11;;;;;;;11.52;5.47;;;;;;;18.05;55.25;101720.47;5035608;28;20100;-62
2023/06/16 02:04:42;;;;;;;12.60;5.68;;;;;;;18.00;55.39;101717.81;5035799;28;20029;-62
2023/06/16 02:07:12;;;;;;;7.43;5.30;;;;;;;17.91;55.80;101715.22;5035961;28;20037;-62
2023/06/16 02:09:39;;;;;;;11.52;5.70;;;;;;;17.99;53.91;101724.97;5035613;28;20025;-62
2023/06/16 02:12:09;;;;;;;15.95;6.28;;;;;;;17.97;53.56;101712.50;5035465;28;20133;-62
2023/06/16 02:14:35;;;;;;;10.45;6.05;;;;;;;18.10;53.99;101721.31;5035357;28;20030;-62
2023/06/16 02:17:19;;;;;;;9.52;5.95;;;;;;;18.13;53.59;101722.19;5035307;28;20026;-62
2023/06/16 02:19:44;;;;;;;7.68;5.78;;;;;;;18.18;53.64;101731.06;5035652;28;20041;-62
2023/06/16 02:22:10;;;;;;;8.73;6.15;;;;;;;18.19;52.26;101722.13;5035259;28;20501;-62
2023/06/16 02:24:35;;;;;;;11.07;6.05;;;;;;;18.24;52.79;101727.47;5035578;28;20033;-62
2023/06/16 02:27:03;;;;;;;11.00;6.38;;;;;;;18.17;52.20;101718.59;5035463;28;20021;-62
2023/06/16 02:29:29;;;;;;;13.77;6.22;;;;;;;18.12;52.21;101720.44;5035135;28;20036;-62
2023/06/16 02:31:55;;;;;;;9.73;5.88;;;;;;;18.13;52.72;101726.66;5034070;28;20037;-62
2023/06/16 02:34:20;;;;;;;13.18;6.20;;;;;;;18.10;52.18;101727.56;5034889;28;20034;-62
2023/06/16 02:36:46;;;;;;;13.35;6.40;;;;;;;18.08;52.10;101731.16;5035358;28;20032;-62
2023/06/16 02:39:13;;;;;;;10.00;6.00;;;;;;;18.03;52.16;101728.50;5035263;28;20078;-62
2023/06/16 02:41:38;;;;;;;10.43;6.30;;;;;;;18.02;52.37;101732.94;5034882;28;20513;-62
2023/06/16 02:44:04;;;;;;;10.13;5.95;;;;;;;18.02;53.19;101730.28;5035197;28;20037;-62
2023/06/16 02:46:29;;;;;;;9.80;5.70;;;;;;;18.06;53.11;101732.94;5034729;28;20479;-62
2023/06/16 02:48:55;;;;;;;12.02;5.82;;;;;;;18.11;53.40;101725.75;5034706;28;20033;-63
2023/06/16 02:51:20;;;;;;;9.88;6.05;;;;;;;18.11;53.14;101726.66;5034891;28;20029;-62
2023/06/16 02:53:46;;;;;;;13.50;6.18;;;;;;;18.12;52.94;101733.81;5034882;28;20057;-62
2023/06/16 02:56:12;;;;;;;10.85;5.93;;;;;;;18.08;53.32;101729.38;5034418;28;20476;-63
2023/06/16 02:58:38;;;;;;;9.02;6.00;;;;;;;17.98;53.55;101730.28;5034410;28;20045;-62
2023/06/16 03:01:04;;;;;;;8.95;5.95;;;;;;;17.86;54.09;101723.25;5034474;28;20407;-63
2023/06/16 03:03:31;;;;;;;11.60;6.35;;;;;;;17.84;54.25;101725.03;5016582;28;20079;-62
2023/06/16 03:05:58;;;;;;;9.68;5.93;;;;;;;17.73;54.70;101725.06;5034345;28;20041;-62
2023/06/16 03:08:24;;;;;;;14.27;6.25;;;;;;;17.65;55.20;101728.66;5034568;28;20360;-62
2023/06/16 03:10:51;;;;;;;8.38;5.85;;;;;;;17.59;55.12;101732.25;5034652;28;20520;-62
2023/06/16 03:13:17;;;;;;;8.95;6.10;;;;;;;17.54;55.71;101736.72;5034365;28;20036;-64
2023/06/16 03:15:43;;;;;;;9.48;6.03;;;;;;;17.43;56.14;101728.75;5034631;28;20101;-63
2023/06/16 03:18:09;;;;;;;9.95;5.80;;;;;;;17.36;56.16;101729.66;5033984;28;20033;-63
2023/06/16 03:20:35;;;;;;;10.68;6.28;;;;;;;17.32;56.25;101730.56;5033635;28;20050;-63
2023/06/16 03:23:00;;;;;;;12.45;5.93;;;;;;;17.25;56.77;101735.00;5033320;28;20021;-62
2023/06/16 03:25:26;;;;;;;12.70;6.30;;;;;;;17.21;57.03;101732.34;5033093;28;20492;-63
2023/06/16 03:27:52;;;;;;;11.13;6.07;;;;;;;17.22;56.94;101731.50;5032867;28;20030;-62
2023/06/16 03:30:18;;;;;;;12.63;6.28;;;;;;;17.24;57.18;101727.03;5015127;28;20109;-62
2023/06/16 03:32:44;;;;;;;11.75;6.28;;;;;;;17.19;57.30;101723.47;5033270;28;20029;-62
2023/06/16 03:35:09;;;;;;;10.82;6.32;;;;;;;17.04;57.68;101732.38;5033729;28;20033;-62
2023/06/16 03:37:35;;;;;;;10.80;5.97;;;;;;;17.05;57.46;101725.31;5033308;28;20033;-62
2023/06/16 03:40:05;;;;;;;11.20;6.38;;;;;;;16.95;57.54;101735.97;5033247;28;20028;-62
2023/06/16 03:42:32;;;;;;;8.68;6.15;;;;;;;16.94;57.27;101736.88;5033026;28;20037;-62
2023/06/16 03:44:57;;;;;;;10.65;6.97;;;;;;;16.93;57.22;101735.09;5033268;28;20026;-63
2023/06/16 03:47:24;;;;;;;14.68;6.60;;;;;;;16.86;57.56;101735.09;5032839;28;20037;-62
2023/06/16 03:49:49;;;;;;;18.20;6.40;;;;;;;16.80;57.53;101735.13;5015442;28;20091;-62
2023/06/16 03:52:14;;;;;;;12.77;6.53;;;;;;;16.76;57.93;101739.56;5032926;28;20162;-62
2023/06/16 03:54:40;;;;;;;10.75;6.30;;;;;;;16.60;58.75;101740.41;5032823;28;20022;-63
2023/06/16 03:57:05;;;;;;;7.30;6.07;;;;;;;16.62;58.81;101744.88;5032438;28;20175;-62
2023/06/16 03:59:31;;;;;;;12.93;6.68;;;;;;;16.64;58.78;101737.75;5032440;28;20029;-62
2023/06/16 04:01:57;;;;;;;10.27;6.18;;;;;;;16.71;58.48;101741.31;5015362;28;20489;-62
2023/06/16 04:04:25;;;;;;;13.55;6.47;;;;;;;16.86;58.21;101749.31;5033029;28;20045;-62
2023/06/16 04:06:51;;;;;;;15.82;6.22;;;;;;;16.90;57.70;101742.22;5033346;28;20033;-63
2023/06/16 04:09:16;;;;;;;16.25;6.13;;;;;;;16.94;57.64;101738.66;5032901;28;20026;-62
2023/06/16 04:11:42;;;;;;;9.77;6.47;;;;;;;17.01;57.32;101737.75;5032917;28;20045;-62
2023/06/16 04:14:09;;;;;;;11.10;6.15;;;;;;;17.02;57.58;101745.75;5033145;28;20136;-62
2023/06/16 04:16:35;;;;;;;10.57;6.50;;;;;;;16.98;58.77;101746.66;5032930;28;20406;-63
2023/06/16 04:19:02;;;;;;;9.90;6.40;;;;;;;16.98;58.52;101749.31;5032879;28;20021;-63
2023/06/16 04:21:28;;;;;;;10.60;6.22;;;;;;;17.07;58.45;101755.53;5032669;28;20467;-62
2023/06/16 04:23:54;;;;;;;11.43;5.82;;;;;;;17.08;58.09;101755.53;5032837;28;20083;-62
2023/06/16 04:26:22;;;;;;;11.70;6.47;;;;;;;17.15;57.80;101749.28;5032564;28;20022;-62
2023/06/16 04:28:53;;;;;;;11.25;6.60;;;;;;;17.06;58.13;101760.00;5033117;28;20025;-62
2023/06/16 04:31:21;;;;;;;11.90;6.68;;;;;;;17.11;58.16;101751.97;5032538;28;20087;-62
2023/06/16 04:33:46;;;;;;;10.75;6.35;;;;;;;17.12;58.09;101753.75;5015182;28;20071;-63
2023/06/16 04:36:12;;;;;;;12.52;6.57;;;;;;;17.19;57.80;101755.53;5032710;28;20021;-62
2023/06/16 04:38:38;;;;;;;11.35;6.63;;;;;;;17.28;57.62;101756.38;5032809;28;20434;-62
2023/06/16 04:41:04;;;;;;;17.52;7.13;;;;;;;17.43;57.66;101758.16;5032567;28;20030;-62
2023/06/16 04:43:30;;;;;;;8.90;6.72;;;;;;;17.53;57.07;101756.31;5032655;28;20018;-62
2023/06/16 04:45:55;;;;;;;14.68;6.68;;;;;;;17.64;58.14;101764.28;5032598;28;20034;-62
2023/06/16 04:48:21;;;;;;;13.85;6.78;;;;;;;17.66;57.77;101768.75;5032100;28;20037;-62
2023/06/16 04:50:46;;;;;;;12.15;7.00;;;;;;;17.70;58.54;101762.50;5032581;28;20030;-62
2023/06/16 04:53:12;;;;;;;12.15;7.38;;;;;;;17.60;59.70;101766.13;5032313;28;20026;-62
2023/06/16 04:55:37;;;;;;;15.35;7.13;;;;;;;17.69;59.38;101773.22;5035729;28;20025;-62
2023/06/16 04:58:03;;;;;;;14.70;7.50;;;;;;;17.75;59.31;101770.53;5036428;28;20129;-62
2023/06/16 05:00:29;;;;;;;16.23;8.05;;;;;;;17.77;60.04;101769.66;5036719;28;20498;-62
2023/06/16 05:02:55;;;;;;;13.23;6.82;;;;;;;17.89;59.73;101765.13;5036203;28;20116;-62
2023/06/16 05:05:21;;;;;;;16.45;7.38;;;;;;;17.93;58.77;101756.19;5036355;28;20116;-62
2023/06/16 05:07:46;;;;;;;12.35;7.40;;;;;;;18.15;57.41;101768.53;5036509;28;20052;-62
2023/06/16 05:10:12;;;;;;;14.00;7.40;;;;;;;18.26;56.61;101769.38;5036354;28;20540;-62
2023/06/16 05:12:37;;;;;;;15.10;7.22;;;;;;;18.43;54.73;101773.72;5018699;28;20467;-62
2023/06/16 05:15:03;;;;;;;13.95;7.35;;;;;;;18.50;54.51;101771.00;5036057;28;20471;-62
2023/06/16 05:17:28;;;;;;;19.98;7.70;;;;;;;18.59;54.28;101764.69;5036099;28;20025;-62
2023/06/16 05:19:54;;;;;;;14.35;8.10;;;;;;;18.80;54.48;101769.03;5036183;28;20021;-62
2023/06/16 05:22:23;;;;;;;10.23;7.10;;;;;;;19.00;53.35;101774.19;5036102;28;20060;-62
2023/06/16 05:24:51;;;;;;;21.75;7.68;;;;;;;19.08;53.71;101766.09;5036143;28;20061;-62
2023/06/16 05:27:17;;;;;;;12.73;7.57;;;;;;;19.22;52.35;101770.38;5036256;28;20018;-62
2023/06/16 05:29:42;;;;;;;13.68;7.82;;;;;;;19.32;51.72;101768.53;5035851;28;20028;-62
2023/06/16 05:32:07;;;;;;;15.02;8.45;;;;;;;19.44;51.28;101771.06;5035939;28;20482;-62
2023/06/16 05:34:35;;;;;;;12.48;6.60;;;;;;;19.65;49.97;101778.00;5035687;28;20393;-62
2023/06/16 05:37:00;;;;;;;16.27;7.95;;;;;;;19.74;49.56;101774.31;5035780;28;20083;-62
2023/06/16 05:39:25;;;;;;;11.85;7.70;;;;;;;19.88;48.93;101774.16;5035777;28;20033;-62
2023/06/16 05:41:51;;;;;;;17.40;7.63;;;;;;;19.97;49.49;101769.56;5035503;28;20372;-62
2023/06/16 05:44:16;;;;;;;15.07;8.02;;;;;;;20.07;49.06;101769.41;5035730;28;20033;-62
2023/06/16 05:46:42;;;;;;;17.98;8.10;;;;;;;20.10;49.17;101772.06;5035353;28;20029;-62
2023/06/16 05:49:07;;;;;;;14.07;8.02;;;;;;;20.28;49.25;101779.84;5035624;28;20037;-62
2023/06/16 05:51:32;;;;;;;14.05;8.15;;;;;;;20.35;49.93;101781.53;5035401;28;20025;-62
2023/06/16 05:53:58;;;;;;;15.80;8.07;;;;;;;20.54;50.06;101786.66;5035549;28;20037;-62
2023/06/16 05:56:23;;;;;;;12.93;8.23;;;;;;;20.74;49.38;101779.19;5035426;28;20160;-63
2023/06/16 05:58:49;;;;;;;14.90;7.93;;;;;;;21.00;48.59;101781.44;5017602;28;20021;-62
2023/06/16 06:01:14;;;;;;;15.57;7.95;;;;;;;21.11;47.89;101774.06;5035434;28;20029;-62
2023/06/16 06:03:45;;;;;;;16.73;8.13;;;;;;;21.40;46.79;101781.59;5017382;28;20398;-63
2023/06/16 06:06:10;;;;;;;14.00;8.13;;;;;;;21.48;46.29;101784.16;5035338;28;20034;-62
2023/06/16 06:08:36;;;;;;;15.68;8.13;;;;;;;21.71;45.99;101786.38;5035101;28;20030;-63
2023/06/16 06:11:01;;;;;;;13.27;7.57;;;;;;;21.88;45.46;101789.59;5035250;28;20024;-62
2023/06/16 06:13:27;;;;;;;14.50;7.30;;;;;;;22.03;44.78;101792.91;5035289;28;20033;-62
2023/06/16 06:15:52;;;;;;;22.17;8.50;;;;;;;22.18;44.20;101788.09;5035128;28;20033;-62
2023/06/16 06:18:18;;;;;;;13.95;7.38;;;;;;;22.38;43.88;101797.53;5034673;28;20033;-62
2023/06/16 06:20:45;;;;;;;18.95;7.30;;;;;;;22.47;42.85;101795.50;5035076;28;20459;-63
2023/06/16 06:23:11;;;;;;;21.95;7.20;;;;;;;22.68;42.26;101795.91;5035122;28;20025;-63
2023/06/16 06:25:37;;;;;;;16.33;7.63;;;;;;;22.66;42.62;101801.34;5034767;28;20041;-63
2023/06/16 06:28:02;;;;;;;11.98;7.53;;;;;;;22.92;41.61;101798.03;5034846;28;20113;-64
2023/06/16 06:30:28;;;;;;;16.48;7.72;;;;;;;23.03;41.46;101797.75;5034895;28;20026;-63
2023/06/16 06:32:56;;;;;;;10.18;7.32;;;;;;;23.23;40.72;101806.19;5035044;28;20029;-63
2023/06/16 06:35:23;;;;;;;17.60;7.25;;;;;;;23.32;40.74;101807.75;5034590;28;20049;-63
2023/06/16 06:37:48;;;;;;;19.52;6.97;;;;;;;23.68;39.48;101807.69;5034851;28;20087;-63
2023/06/16 06:40:14;;;;;;;16.65;7.25;;;;;;;23.79;39.79;101807.41;5034706;28;20029;-63
2023/06/16 06:42:40;;;;;;;12.68;7.70;;;;;;;23.87;38.06;101806.25;5034514;28;20368;-63
2023/06/16 06:45:06;;;;;;;12.75;7.35;;;;;;;23.99;38.07;101803.19;5034206;28;20100;-64
2023/06/16 06:47:32;;;;;;;16.02;7.10;;;;;;;24.22;38.32;101799.78;5034502;28;20037;-63
2023/06/16 06:49:57;;;;;;;14.95;7.45;;;;;;;24.39;37.61;101802.00;5034505;28;20030;-63
2023/06/16 06:52:22;;;;;;;11.82;7.70;;;;;;;24.54;37.41;101807.84;5034575;28;20116;-63
2023/06/16 06:54:48;;;;;;;11.52;7.25;;;;;;;24.70;37.45;101810.00;5034651;28;20454;-64
2023/06/16 06:57:15;;;;;;;16.25;7.85;;;;;;;24.89;36.81;101806.69;5034288;28;20041;-64
2023/06/16 06:59:41;;;;;;;15.00;7.82;;;;;;;24.93;37.65;101808.38;5034616;28;20071;-64
2023/06/16 07:02:07;;;;;;;17.75;7.78;;;;;;;25.01;37.09;101811.69;5034170;28;20041;-64
2023/06/16 07:04:33;;;;;;;15.50;7.57;;;;;;;25.16;37.47;101810.31;5034234;28;20022;-64
2023/06/16 07:07:00;;;;;;;19.30;7.90;;;;;;;25.32;35.44;101807.97;5034091;28;20029;-64
2023/06/16 07:09:25;;;;;;;15.00;7.47;;;;;;;25.44;35.40;101812.94;5034341;28;20021;-64
2023/06/16 07:11:50;;;;;;;14.90;8.10;;;;;;;25.67;35.53;101818.38;5016119;28;20467;-64
2023/06/16 07:14:16;;;;;;;19.38;8.27;;;;;;;25.75;35.43;101817.22;5034075;28;20044;-64
2023/06/16 07:16:41;;;;;;;15.85;7.88;;;;;;;25.91;34.99;101816.63;5033063;28;20030;-64
2023/06/16 07:19:07;;;;;;;15.50;8.27;;;;;;;26.10;33.09;101816.78;5033781;28;20018;-63
2023/06/16 07:21:32;;;;;;;13.32;8.10;;;;;;;26.23;33.33;101819.91;5034172;28;20025;-64
2023/06/16 07:23:57;;;;;;;15.18;7.60;;;;;;;26.35;33.02;101814.00;5033674;28;20044;-63
2023/06/16 07:26:23;;;;;;;16.33;7.93;;;;;;;26.42;32.92;101815.53;5034184;28;20483;-63
2023/06/16 07:28:49;;;;;;;13.10;7.68;;;;;;;26.46;32.42;101814.47;5033604;28;20467;-63
2023/06/16 07:31:15;;;;;;;12.80;7.18;;;;;;;26.65;32.92;101811.03;5034047;28;20026;-63
2023/06/16 07:33:41;;;;;;;13.15;7.07;;;;;;;26.81;31.39;101817.59;5033771;28;20039;-63
2023/06/16 07:36:06;;;;;;;8.93;5.90;;;;;;;26.96;30.20;101802.50;5033530;28;20033;-63
2023/06/16 07:38:32;;;;;;;11.30;6.40;;;;;;;27.28;29.89;101825.59;5033457;28;20368;-64
2023/06/16 07:40:57;;;;;;;14.93;6.78;;;;;;;27.43;29.52;101824.91;5033554;28;20033;-63
2023/06/16 07:43:23;;;;;;;15.57;6.53;;;;;;;27.59;29.61;101818.78;5033310;28;20036;-63
2023/06/16 07:45:50;;;;;;;14.48;6.72;;;;;;;27.66;28.41;101818.41;5033428;28;20053;-62
2023/06/16 07:48:15;;;;;;;10.88;6.88;;;;;;;27.75;27.95;101813.56;5033489;28;20196;-62
2023/06/16 07:50:41;;;;;;;12.50;6.90;;;;;;;27.83;28.56;101816.81;5033517;28;20364;-62
2023/06/16 07:53:06;;;;;;;8.38;5.95;;;;;;;28.04;29.26;101809.50;5033348;28;20451;-62
2023/06/16 07:55:32;;;;;;;10.02;5.88;;;;;;;28.17;27.36;101811.56;5033488;28;20100;-62
2023/06/16 07:57:57;;;;;;;8.27;5.80;;;;;;;28.28;26.50;101808.34;5033119;28;20049;-63
2023/06/16 08:00:23;;;;;;;8.32;5.75;;;;;;;28.26;26.69;101806.63;5033070;28;20056;-63
2023/06/16 08:02:48;;;;;;;10.60;5.75;;;;;;;28.39;26.46;101813.28;5033056;28;20057;-63
2023/06/16 08:05:16;;;;;;;7.43;5.45;;;;;;;28.57;24.60;101811.53;5015558;28;20030;-63
2023/06/16 08:07:43;;;;;;;11.52;5.70;;;;;;;28.67;26.14;101812.81;5015698;28;20029;-63
2023/06/16 08:10:09;;;;;;;10.93;6.07;;;;;;;28.55;25.69;101806.13;5032856;28;20435;-63
2023/06/16 08:12:34;;;;;;;10.88;5.75;;;;;;;28.68;25.87;101807.28;5033093;28;20153;-63
2023/06/16 08:15:00;;;;;;;11.43;5.40;;;;;;;28.91;24.38;101805.28;5033017;28;20056;-63
2023/06/16 08:17:25;;;;;;;9.23;5.50;;;;;;;28.91;25.02;101803.44;5032520;28;20036;-63
2023/06/16 08:19:53;;;;;;;7.80;5.30;;;;;;;28.95;23.26;101806.88;5032703;28;20396;-63
2023/06/16 08:22:18;;;;;;;8.35;5.00;;;;;;;29.06;24.24;101799.06;5032849;28;20040;-63
2023/06/16 08:24:44;;;;;;;6.20;4.28;;;;;;;29.09;22.38;101806.19;5032821;28;20030;-63
2023/06/16 08:27:11;;;;;;;7.20;3.90;;;;;;;29.17;21.49;101802.13;5032689;28;20025;-63
2023/06/16 08:29:36;;;;;;;8.25;3.80;;;;;;;29.28;21.38;101801.53;5032081;28;20037;-63
2023/06/16 08:32:02;;;;;;;7.35;4.22;;;;;;;29.52;21.88;101798.50;5032798;28;20028;-63
2023/06/16 08:34:28;;;;;;;8.25;4.97;;;;;;;29.69;22.03;101804.81;5032553;28;20028;-63
2023/06/16 08:36:53;;;;;;;6.55;4.50;;;;;;;30.07;22.61;101801.84;5032536;28;20021;-63
2023/06/16 08:39:19;;;;;;;9.00;4.70;;;;;;;30.18;23.82;101803.97;5032787;28;20054;-63
2023/06/16 08:41:46;;;;;;;7.57;4.45;;;;;;;30.20;22.63;101795.72;5032567;28;20026;-63
2023/06/16 08:44:14;;;;;;;8.02;4.55;;;;;;;30.40;22.72;101796.31;5014672;28;20479;-63
2023/06/16 08:46:40;;;;;;;8.20;5.20;;;;;;;30.54;22.63;101789.22;5032539;28;20462;-63
2023/06/16 08:49:06;;;;;;;10.35;4.78;;;;;;;30.84;21.79;101797.50;5032415;28;20032;-62
2023/06/16 08:51:33;;;;;;;9.65;4.72;;;;;;;30.69;21.64;101794.63;5032665;28;20394;-64
2023/06/16 08:54:03;;;;;;;9.30;4.47;;;;;;;30.83;21.36;101799.31;5032310;28;20033;-62
2023/06/16 08:56:31;;;;;;;6.80;4.00;;;;;;;31.07;22.16;101791.50;5032230;28;20029;-63
2023/06/16 08:58:59;;;;;;;8.85;4.45;;;;;;;31.34;20.80;101793.56;5032676;28;20029;-62
2023/06/16 09:01:25;;;;;;;10.25;4.43;;;;;;;31.28;20.75;101791.19;5032494;28;20508;-63
2023/06/16 09:03:53;;;;;;;7.25;4.25;;;;;;;31.39;21.13;101797.78;5046362;28;20044;-63
2023/06/16 09:06:18;;;;;;;8.50;4.30;;;;;;;31.50;19.46;101788.91;5051856;28;20451;-64
2023/06/16 09:08:44;;;;;;;6.40;3.92;;;;;;;31.67;19.84;101790.59;5034433;28;20061;-64
2023/06/16 09:11:10;;;;;;;5.25;3.85;;;;;;;31.80;19.77;101788.81;5052191;28;20060;-62
2023/06/16 09:13:41;;;;;;;9.75;4.40;;;;;;;31.73;20.18;101790.19;5052500;28;20425;-62
2023/06/16 09:16:09;;;;;;;7.47;4.18;;;;;;;31.70;19.99;101793.13;5052284;28;20032;-63
2023/06/16 09:18:40;;;;;;;7.03;4.00;;;;;;;31.88;19.63;101791.13;5052147;28;20044;-62
2023/06/16 09:21:06;;;;;;;;;;;;;;;32.33;20.23;101791.81;5052134;28;20551;-62
2023/06/16 09:23:32;;;;;;;5.97;3.72;;;;;;;32.19;19.18;101786.38;5052171;28;20011;-63
2023/06/16 09:26:00;;;;;;;9.35;3.90;;;;;;;32.21;19.28;101788.06;5051935;28;20087;-63
2023/06/16 09:28:36;;;;;;;7.38;3.80;;;;;;;32.52;18.96;101789.66;5051988;28;20447;-63
2023/06/16 09:31:04;;;;;;;11.07;3.97;;;;;;;32.56;18.21;101790.34;5052363;28;20116;-63
2023/06/16 09:33:31;;;;;;;5.82;4.07;;;;;;;32.57;18.45;101789.34;5052157;28;20090;-63
2023/06/16 09:36:00;;;;;;;6.53;3.80;;;;;;;32.41;19.07;101781.28;5052001;28;20453;-64
2023/06/16 09:38:26;;;;;;;8.55;4.00;;;;;;;32.72;18.10;101784.69;5034408;28;20033;-63
2023/06/16 09:40:51;;;;;;;5.28;3.80;;;;;;;32.77;18.26;101788.03;5053838;28;20036;-63
2023/06/16 09:43:17;;;;;;;7.40;3.78;;;;;;;32.84;18.20;101782.00;5037658;28;20025;-63
2023/06/16 09:45:44;;;;;;;9.45;4.05;;;;;;;32.84;17.77;101776.53;5055718;28;20122;-63
2023/06/16 09:48:11;;;;;;;10.00;4.15;;;;;;;33.09;17.29;101777.63;5054971;28;20360;-63
2023/06/16 09:50:37;;;;;;;7.72;4.20;;;;;;;33.14;17.50;101784.53;5055922;28;20126;-63
2023/06/16 09:53:05;;;;;;;36.58;5.78;;;;;;;33.31;17.91;101785.22;5055760;28;20040;-63
2023/06/16 09:55:32;;;;;;;7.90;4.38;;;;;;;33.59;18.25;101775.94;5042674;28;20057;-63
2023/06/16 09:57:58;;;;;;;9.63;4.10;;;;;;;33.56;17.35;101776.16;5035144;28;20132;-63
2023/06/16 10:00:25;;;;;;;30.65;4.95;;;;;;;33.58;17.29;101772.34;5035269;28;20032;-64
2023/06/16 10:02:50;;;;;;;9.75;4.00;;;;;;;33.59;16.91;101774.09;5035437;28;20025;-64
2023/06/16 10:05:18;;;;;;;6.88;4.03;;;;;;;33.80;16.69;101773.53;5038350;28;20017;-63
2023/06/16 10:07:48;;;;;;;7.88;4.18;;;;;;;33.90;17.64;101760.88;5055498;28;20368;-63
2023/06/16 10:10:15;;;;;;;7.25;3.90;;;;;;;34.22;17.06;101766.78;5055320;28;20433;-63
2023/06/16 10:12:46;;;;;;;5.13;3.60;;;;;;;34.35;17.74;101769.50;5055087;28;20044;-63
2023/06/16 10:15:15;;;;;;;10.02;4.00;;;;;;;34.06;17.38;101769.78;5037834;28;20116;-63
2023/06/16 10:17:45;;;;;;;8.40;3.80;;;;;;;34.25;17.45;101754.69;5055076;28;20059;-63
2023/06/16 10:20:13;;;;;;;7.65;3.70;;;;;;;34.36;16.22;101755.63;5036844;28;20394;-63
2023/06/16 10:22:39;;;;;;;6.35;3.78;;;;;;;34.34;17.39;101763.09;5055035;28;20013;-63
2023/06/16 10:25:06;;;;;;;9.35;3.92;;;;;;;34.57;16.85;101755.91;5054828;28;20111;-63
2023/06/16 10:27:33;;;;;;;6.80;3.90;;;;;;;34.78;15.88;101758.88;5054899;28;20550;-64
2023/06/16 10:30:01;;;;;;;6.53;3.90;;;;;;;34.85;15.50;101754.66;5055073;28;20108;-63
2023/06/16 10:32:26;;;;;;;8.80;3.50;;;;;;;34.47;15.77;101751.19;5054953;28;20040;-63
2023/06/16 10:34:56;;;;;;;6.60;3.70;;;;;;;34.96;16.53;101750.22;5054860;28;20028;-63
2023/06/16 10:37:24;;;;;;;6.40;3.67;;;;;;;34.97;14.66;101741.88;5054921;28;20127;-63
2023/06/16 10:39:54;;;;;;;7.45;3.60;;;;;;;34.98;15.32;101745.50;5054756;28;20330;-63
2023/06/16 10:42:20;;;;;;;5.88;3.72;;;;;;;35.21;16.01;101739.06;5054518;28;20049;-63
2023/06/16 10:44:45;;;;;;;7.95;4.00;;;;;;;35.17;15.82;101744.94;5054436;28;20056;-64
2023/06/16 10:47:11;;;;;;;6.93;3.90;;;;;;;35.13;14.60;101742.44;5054437;28;20124;-63
2023/06/16 10:49:55;;;;;;;6.40;3.70;;;;;;;35.40;15.63;101743.97;5054822;28;20076;-63
2023/06/16 10:52:51;;;;;;;7.85;3.90;;;;;;;35.41;14.62;101742.97;5053792;28;20033;-64
2023/06/16 10:55:34;;;;;;;7.32;4.00;;;;;;;35.08;15.33;101735.56;5054564;28;20037;-63
2023/06/16 10:58:15;;;;;;;6.95;4.03;;;;;;;35.11;14.76;101736.16;5054012;28;20449;-63
2023/06/16 11:00:45;;;;;;;7.93;3.80;;;;;;;34.99;14.99;101731.66;5054380;28;20025;-63
2023/06/16 11:03:10;;;;;;;8.38;3.83;;;;;;;35.01;14.72;101728.78;5052271;28;20029;-64
2023/06/16 11:05:40;;;;;;;7.53;3.97;;;;;;;35.33;14.86;101729.84;5054545;28;20029;-64
2023/06/16 11:08:15;;;;;;;5.28;3.83;;;;;;;35.50;15.52;101723.00;5054337;28;20021;-64
2023/06/16 11:10:52;;;;;;;7.82;3.78;;;;;;;35.73;14.87;101732.16;5054360;28;20052;-64
2023/06/16 11:13:25;;;;;;;4.50;3.60;;;;;;;35.90;14.90;101718.91;5054052;28;20469;-63
2023/06/16 11:15:54;;;;;;;9.20;4.10;;;;;;;36.14;14.98;101722.38;5054175;28;20501;-64
2023/06/16 11:18:24;;;;;;;8.95;4.07;;;;;;;36.07;13.64;101721.16;5053731;28;20029;-64
2023/06/16 11:20:54;;;;;;;4.53;3.70;;;;;;;35.95;15.32;101720.25;5053922;28;20033;-64
2023/06/16 11:23:20;;;;;;;8.02;3.70;;;;;;;35.89;14.76;101712.53;5054377;28;20104;-64